Terminal Aerodrome Forecast
Issued by NWS Cleveland, OH

Home | Current Version | Previous Version | Text Only | Print | Product List | Glossary On
Versions: 1 2 3 4 5 6 7 8 9 10 11 12 13 14 15 16 17
000
FTUS41 KCLE 270610 AAA
TAFCAK
TAF AMD
KCAK 270610Z 2706/2806 20005KT 6SM BR OVC005
     FM270900 22005KT 3SM BR OVC005
      TEMPO 2709/2713 1SM BR OVC002
     FM271500 24008KT P6SM BKN015
     FM271800 24008KT P6SM BKN050
     FM280000 VRB03KT P6SM OVC100=

USA.gov is the U.S. government's official web portal to all federal, state and local government web resources and services.